Time,TemperatureF,DewpointF,PressureIn,WindDirection,WindDirectionDegrees,WindSpeedMPH,WindSpeedGustMPH,Humidity,HourlyPrecipIn,Conditions,Clouds,dailyrainin,SolarRadiationWatts/m^2,SoftwareType,DateUTC
2013-08-08 00:11:00,64.0,62.0,29.96,NNW,342,0.0,-999.0,93,-99.99,,,-99.99,0.000000,,2013-08-08 04:11:00,
2013-08-08 00:33:00,64.0,62.0,29.96,NNW,342,0.0,-999.0,93,-99.99,,,-99.99,0.000000,,2013-08-08 04:33:00,
2013-08-08 00:53:00,63.0,61.0,29.96,NNW,342,0.0,-999.0,94,-99.99,,,-99.99,0.000000,,2013-08-08 04:53:00,
2013-08-08 01:02:00,63.0,61.0,29.96,NNW,342,0.0,-999.0,94,-99.99,,,-99.99,0.000000,,2013-08-08 05:02:00,
2013-08-08 01:11:00,63.0,61.0,29.96,NNW,342,0.0,-999.0,94,-99.99,,,-99.99,0.000000,,2013-08-08 05:11:00,
2013-08-08 01:22:00,63.0,61.0,29.96,NNW,342,0.0,-999.0,94,-99.99,,,-99.99,0.000000,,2013-08-08 05:22:00,
2013-08-08 01:33:00,63.0,61.0,29.97,NNW,342,0.0,-999.0,94,-99.99,,,-99.99,0.000000,,2013-08-08 05:33:00,
2013-08-08 01:43:00,62.0,60.0,29.98,NNW,342,0.0,-999.0,94,-99.99,,,-99.99,0.000000,,2013-08-08 05:43:00,
2013-08-08 01:52:00,62.0,60.0,29.98,NNW,342,0.0,-999.0,94,-99.99,,,-99.99,0.000000,,2013-08-08 05:52:00,
2013-08-08 02:01:00,63.0,61.0,29.98,NNW,343,0.0,-999.0,93,-99.99,,,-99.99,0.000000,,2013-08-08 06:01:00,
2013-08-08 02:22:00,62.0,60.0,29.98,NNW,343,0.0,-999.0,93,-99.99,,,-99.99,0.000000,,2013-08-08 06:22:00,
2013-08-08 02:43:00,61.0,59.0,29.98,NNW,343,0.0,-999.0,94,-99.99,,,-99.99,0.000000,,2013-08-08 06:43:00,
2013-08-08 02:52:00,61.0,59.0,29.98,NNW,343,0.0,-999.0,94,-99.99,,,-99.99,0.000000,,2013-08-08 06:52:00,
2013-08-08 03:02:00,61.0,59.0,29.99,NNW,343,0.0,-999.0,94,-99.99,,,-99.99,0.000000,,2013-08-08 07:02:00,
2013-08-08 03:12:00,61.0,60.0,30.00,NNW,343,0.0,-999.0,95,-99.99,,,-99.99,0.000000,,2013-08-08 07:12:00,
2013-08-08 03:22:00,61.0,60.0,30.00,NNW,343,0.0,-999.0,95,-99.99,,,-99.99,0.000000,,2013-08-08 07:22:00,
2013-08-08 03:32:00,60.0,59.0,30.00,NNW,343,0.0,-999.0,95,-99.99,,,-99.99,0.000000,,2013-08-08 07:32:00,
2013-08-08 03:43:00,60.0,59.0,30.00,NNW,343,0.0,-999.0,95,-99.99,,,-99.99,0.000000,,2013-08-08 07:43:00,
2013-08-08 03:53:00,60.0,59.0,30.00,NNW,343,0.0,-999.0,95,-99.99,,,-99.99,0.000000,,2013-08-08 07:53:00,
2013-08-08 04:02:00,60.0,59.0,30.00,NNW,343,1.0,-999.0,95,-99.99,,,-99.99,0.000000,,2013-08-08 08:02:00,
2013-08-08 04:11:00,60.0,59.0,30.00,NNW,343,0.0,-999.0,95,-99.99,,,-99.99,0.000000,,2013-08-08 08:11:00,
2013-08-08 04:22:00,60.0,59.0,30.00,NNW,343,0.0,-999.0,95,-99.99,,,-99.99,0.000000,,2013-08-08 08:22:00,
2013-08-08 04:32:00,60.0,59.0,30.00,NNW,343,0.0,-999.0,95,-99.99,,,-99.99,0.000000,,2013-08-08 08:32:00,
2013-08-08 04:43:00,60.0,59.0,30.01,NNW,343,0.0,-999.0,95,-99.99,,,-99.99,0.000000,,2013-08-08 08:43:00,
2013-08-08 04:53:00,60.0,59.0,30.01,NNW,343,0.0,-999.0,95,-99.99,,,-99.99,0.000000,,2013-08-08 08:53:00,
2013-08-08 05:02:00,60.0,59.0,30.00,NNW,343,0.0,-999.0,95,-99.99,,,-99.99,0.000000,,2013-08-08 09:02:00,
2013-08-08 05:12:00,60.0,59.0,30.01,NNW,343,0.0,-999.0,95,-99.99,,,-99.99,0.000000,,2013-08-08 09:12:00,
2013-08-08 05:22:00,60.0,59.0,30.01,NNW,343,0.0,-999.0,95,-99.99,,,-99.99,0.000000,,2013-08-08 09:22:00,
2013-08-08 05:32:00,59.0,58.0,30.01,NNW,343,0.0,-999.0,95,-99.99,,,-99.99,0.000000,,2013-08-08 09:32:00,
2013-08-08 05:53:00,59.0,58.0,30.01,NNW,343,0.0,-999.0,95,-99.99,,,-99.99,0.000000,,2013-08-08 09:53:00,
2013-08-08 06:01:00,59.0,58.0,30.01,NNW,343,0.0,-999.0,95,-99.99,,,-99.99,0.000000,,2013-08-08 10:01:00,
2013-08-08 06:12:00,59.0,58.0,30.01,NE,49,2.0,-999.0,95,-99.99,,,-99.99,0.000000,,2013-08-08 10:12:00,
2013-08-08 06:43:00,58.0,57.0,30.02,NNE,17,0.0,-999.0,95,-99.99,,,-99.99,0.000000,,2013-08-08 10:43:00,
2013-08-08 06:52:00,58.0,57.0,30.02,NNE,17,0.0,-999.0,95,-99.99,,,-99.99,0.000000,,2013-08-08 10:52:00,
2013-08-08 07:02:00,58.0,57.0,30.02,NNE,17,0.0,-999.0,95,-99.99,,,-99.99,0.000000,,2013-08-08 11:02:00,
2013-08-08 07:11:00,58.0,57.0,30.02,NNE,28,1.0,-999.0,95,-99.99,,,-99.99,0.000000,,2013-08-08 11:11:00,
2013-08-08 07:22:00,58.0,57.0,30.02,NNE,32,2.0,-999.0,95,-99.99,,,-99.99,11.000000,,2013-08-08 11:22:00,
2013-08-08 07:43:00,58.0,56.0,30.02,NNE,28,2.0,-999.0,94,-99.99,,,-99.99,19.000000,,2013-08-08 11:43:00,
2013-08-08 07:52:00,58.0,56.0,30.02,ENE,57,2.0,-999.0,94,-99.99,,,-99.99,30.000000,,2013-08-08 11:52:00,
2013-08-08 08:01:00,58.0,56.0,30.02,ENE,57,2.0,-999.0,94,-99.99,,,-99.99,30.000000,,2013-08-08 12:01:00,
2013-08-08 08:11:00,58.0,56.0,30.03,NE,36,3.0,-999.0,94,-99.99,,,-99.99,79.000000,,2013-08-08 12:11:00,
2013-08-08 08:22:00,59.0,57.0,30.02,NE,39,4.0,-999.0,94,-99.99,,,-99.99,44.000000,,2013-08-08 12:22:00,
2013-08-08 08:32:00,59.0,57.0,30.02,NE,39,4.0,-999.0,94,-99.99,,,-99.99,44.000000,,2013-08-08 12:32:00,
2013-08-08 08:43:00,59.0,57.0,30.03,NE,43,3.0,-999.0,93,-99.99,,,-99.99,53.000000,,2013-08-08 12:43:00,
2013-08-08 08:53:00,59.0,57.0,30.03,NNE,31,5.0,-999.0,93,-99.99,,,-99.99,62.000000,,2013-08-08 12:53:00,
2013-08-08 09:01:00,59.0,57.0,30.03,NNE,31,5.0,-999.0,93,-99.99,,,-99.99,62.000000,,2013-08-08 13:01:00,
2013-08-08 09:12:00,60.0,58.0,30.03,ENE,65,4.0,-999.0,92,-99.99,,,-99.99,69.000000,,2013-08-08 13:12:00,
2013-08-08 09:22:00,60.0,57.0,30.05,ENE,76,3.0,-999.0,90,-99.99,,,-99.99,149.000000,,2013-08-08 13:22:00,
2013-08-08 09:32:00,60.0,57.0,30.05,ENE,76,3.0,-999.0,90,-99.99,,,-99.99,149.000000,,2013-08-08 13:32:00,
2013-08-08 09:43:00,61.0,57.0,30.05,East,82,4.0,-999.0,86,-99.99,,,-99.99,98.000000,,2013-08-08 13:43:00,
2013-08-08 09:53:00,63.0,55.0,30.05,NE,37,4.0,-999.0,76,-99.99,,,-99.99,313.000000,,2013-08-08 13:53:00,
2013-08-08 10:02:00,63.0,55.0,30.05,NE,37,4.0,-999.0,76,-99.99,,,-99.99,313.000000,,2013-08-08 14:02:00,
2013-08-08 10:11:00,65.0,55.0,30.06,NE,53,3.0,-999.0,71,-99.99,,,-99.99,519.000000,,2013-08-08 14:11:00,
2013-08-08 10:32:00,66.0,56.0,30.06,NE,50,3.0,-999.0,71,-99.99,,,-99.99,570.000000,,2013-08-08 14:32:00,
2013-08-08 10:43:00,67.0,55.0,30.06,ESE,111,4.0,-999.0,66,-99.99,,,-99.99,504.000000,,2013-08-08 14:43:00,
2013-08-08 10:53:00,67.0,55.0,30.06,ESE,111,4.0,-999.0,66,-99.99,,,-99.99,504.000000,,2013-08-08 14:53:00,
2013-08-08 11:02:00,68.0,56.0,30.06,NE,40,3.0,-999.0,66,-99.99,,,-99.99,751.000000,,2013-08-08 15:02:00,
2013-08-08 11:12:00,70.0,56.0,30.07,ENE,68,3.0,-999.0,62,-99.99,,,-99.99,765.000000,,2013-08-08 15:12:00,
2013-08-08 11:22:00,70.0,56.0,30.07,ENE,68,3.0,-999.0,62,-99.99,,,-99.99,765.000000,,2013-08-08 15:22:00,
2013-08-08 11:32:00,69.0,56.0,30.06,ESE,107,2.0,-999.0,63,-99.99,,,-99.99,817.000000,,2013-08-08 15:32:00,
2013-08-08 11:43:00,71.0,57.0,30.05,NE,42,3.0,-999.0,62,-99.99,,,-99.99,752.000000,,2013-08-08 15:43:00,
2013-08-08 11:53:00,71.0,57.0,30.05,NE,42,3.0,-999.0,62,-99.99,,,-99.99,752.000000,,2013-08-08 15:53:00,
2013-08-08 12:02:00,72.0,55.0,30.04,NNE,28,4.0,-999.0,56,-99.99,,,-99.99,796.000000,,2013-08-08 16:02:00,
2013-08-08 12:11:00,72.0,55.0,30.04,North,10,3.0,-999.0,55,-99.99,,,-99.99,816.000000,,2013-08-08 16:11:00,
2013-08-08 12:32:00,73.0,56.0,30.04,ENE,66,2.0,-999.0,55,-99.99,,,-99.99,868.000000,,2013-08-08 16:32:00,
2013-08-08 12:42:00,74.0,54.0,30.04,ESE,123,2.0,-999.0,49,-99.99,,,-99.99,891.000000,,2013-08-08 16:42:00,
2013-08-08 12:52:00,74.0,54.0,30.04,ESE,123,2.0,-999.0,49,-99.99,,,-99.99,891.000000,,2013-08-08 16:52:00,
2013-08-08 13:21:00,74.0,54.0,30.05,ESE,107,1.0,-999.0,49,-99.99,,,-99.99,954.000000,,2013-08-08 17:21:00,
2013-08-08 13:32:00,75.0,54.0,30.05,East,80,0.0,-999.0,48,-99.99,,,-99.99,,,2013-08-08 17:32:00,
2013-08-08 13:43:00,75.0,52.0,30.04,ENE,65,1.0,-999.0,44,-99.99,,,-99.99,944.000000,,2013-08-08 17:43:00,
2013-08-08 13:52:00,75.0,52.0,30.04,ENE,65,1.0,-999.0,44,-99.99,,,-99.99,944.000000,,2013-08-08 17:52:00,
2013-08-08 14:22:00,76.0,55.0,30.04,ENE,62,2.0,-999.0,49,-99.99,,,-99.99,879.000000,,2013-08-08 18:22:00,
2013-08-08 14:32:00,76.0,51.0,30.03,NE,55,2.0,-999.0,41,-99.99,,,-99.99,889.000000,,2013-08-08 18:32:00,
2013-08-08 14:43:00,77.0,54.0,30.03,NNE,13,3.0,-999.0,45,-99.99,,,-99.99,898.000000,,2013-08-08 18:43:00,
2013-08-08 14:52:00,77.0,54.0,30.03,NNE,13,3.0,-999.0,45,-99.99,,,-99.99,898.000000,,2013-08-08 18:52:00,
2013-08-08 15:12:00,77.0,55.0,30.02,NE,44,4.0,-999.0,46,-99.99,,,-99.99,889.000000,,2013-08-08 19:12:00,
2013-08-08 15:22:00,77.0,55.0,30.02,NE,44,4.0,-999.0,46,-99.99,,,-99.99,889.000000,,2013-08-08 19:22:00,
2013-08-08 15:32:00,77.0,50.0,30.02,ENE,74,1.0,-999.0,39,-99.99,,,-99.99,849.000000,,2013-08-08 19:32:00,
2013-08-08 15:43:00,77.0,51.0,30.02,NNW,330,1.0,-999.0,40,-99.99,,,-99.99,833.000000,,2013-08-08 19:43:00,
2013-08-08 16:02:00,77.0,53.0,30.02,ESE,109,2.0,-999.0,43,-99.99,,,-99.99,819.000000,,2013-08-08 20:02:00,
2013-08-08 16:22:00,79.0,58.0,30.01,NE,47,1.0,-999.0,49,-99.99,,,-99.99,793.000000,,2013-08-08 20:22:00,
2013-08-08 16:32:00,78.0,56.0,30.01,NNE,21,2.0,-999.0,46,-99.99,,,-99.99,745.000000,,2013-08-08 20:32:00,
2013-08-08 16:42:00,78.0,56.0,30.01,NNE,21,2.0,-999.0,46,-99.99,,,-99.99,745.000000,,2013-08-08 20:42:00,
2013-08-08 16:52:00,78.0,53.0,30.00,NNW,340,3.0,-999.0,42,-99.99,,,-99.99,696.000000,,2013-08-08 20:52:00,
2013-08-08 17:01:00,77.0,52.0,30.00,North,355,5.0,-999.0,42,-99.99,,,-99.99,323.000000,,2013-08-08 21:01:00,
2013-08-08 17:14:00,77.0,52.0,30.00,North,355,5.0,-999.0,42,-99.99,,,-99.99,323.000000,,2013-08-08 21:14:00,
2013-08-08 17:25:00,77.0,53.0,30.00,NNW,327,2.0,-999.0,43,-99.99,,,-99.99,199.000000,,2013-08-08 21:25:00,
2013-08-08 17:34:00,77.0,53.0,30.00,NNW,327,2.0,-999.0,43,-99.99,,,-99.99,199.000000,,2013-08-08 21:34:00,
2013-08-08 17:45:00,77.0,53.0,29.99,ENE,59,3.0,-999.0,43,-99.99,,,-99.99,276.000000,,2013-08-08 21:45:00,
2013-08-08 17:57:00,76.0,53.0,29.99,ENE,62,1.0,-999.0,45,-99.99,,,-99.99,128.000000,,2013-08-08 21:57:00,
2013-08-08 18:16:00,76.0,54.0,29.99,ENE,63,1.0,-999.0,46,-99.99,,,-99.99,195.000000,,2013-08-08 22:16:00,
2013-08-08 18:25:00,76.0,53.0,29.99,NNE,19,2.0,-999.0,45,-99.99,,,-99.99,165.000000,,2013-08-08 22:25:00,
2013-08-08 18:35:00,76.0,54.0,30.00,ENE,71,2.0,-999.0,46,-99.99,,,-99.99,107.000000,,2013-08-08 22:35:00,
2013-08-08 18:58:00,76.0,53.0,30.00,NW,319,2.0,-999.0,45,-99.99,,,-99.99,144.000000,,2013-08-08 22:58:00,
2013-08-08 19:14:00,77.0,53.0,30.00,NNW,333,2.0,-999.0,44,-99.99,,,-99.99,287.000000,,2013-08-08 23:14:00,
2013-08-08 19:24:00,76.0,52.0,29.99,North,5,2.0,-999.0,44,-99.99,,,-99.99,146.000000,,2013-08-08 23:24:00,
2013-08-08 19:46:00,76.0,54.0,30.00,North,5,2.0,-999.0,47,-99.99,,,-99.99,218.000000,,2013-08-08 23:46:00,
2013-08-08 19:57:00,75.0,55.0,29.99,NNE,25,2.0,-999.0,49,-99.99,,,-99.99,91.000000,,2013-08-08 23:57:00,
2013-08-08 20:05:00,74.0,54.0,29.99,North,360,3.0,-999.0,50,-99.99,,,-99.99,47.000000,,2013-08-09 00:05:00,
2013-08-08 20:15:00,74.0,54.0,29.99,North,360,3.0,-999.0,50,-99.99,,,-99.99,47.000000,,2013-08-09 00:15:00,
2013-08-08 20:45:00,72.0,54.0,30.00,NNE,19,1.0,-999.0,53,-99.99,,,-99.99,30.000000,,2013-08-09 00:45:00,
2013-08-08 20:56:00,72.0,55.0,30.01,NNE,19,0.0,-999.0,55,-99.99,,,-99.99,16.000000,,2013-08-09 00:56:00,
2013-08-08 21:03:00,72.0,55.0,30.01,NNE,19,0.0,-999.0,55,-99.99,,,-99.99,16.000000,,2013-08-09 01:03:00,
2013-08-08 21:15:00,71.0,55.0,30.01,NNE,19,0.0,-999.0,57,-99.99,,,-99.99,5.000000,,2013-08-09 01:15:00,
2013-08-08 21:25:00,69.0,56.0,30.01,NNE,19,0.0,-999.0,64,-99.99,,,-99.99,0.000000,,2013-08-09 01:25:00,
2013-08-08 21:46:00,67.0,54.0,30.01,NNE,19,0.0,-999.0,64,-99.99,,,-99.99,0.000000,,2013-08-09 01:46:00,
2013-08-08 22:04:00,66.0,54.0,30.01,NNE,19,0.0,-999.0,66,-99.99,,,-99.99,0.000000,,2013-08-09 02:04:00,
2013-08-08 22:14:00,66.0,56.0,30.01,NNE,19,0.0,-999.0,71,-99.99,,,-99.99,0.000000,,2013-08-09 02:14:00,
2013-08-08 22:25:00,66.0,56.0,30.01,NNE,19,0.0,-999.0,71,-99.99,,,-99.99,0.000000,,2013-08-09 02:25:00,
2013-08-08 22:47:00,64.0,56.0,30.02,NNE,19,0.0,-999.0,74,-99.99,,,-99.99,0.000000,,2013-08-09 02:47:00,
2013-08-08 22:55:00,64.0,56.0,30.02,NNE,19,0.0,-999.0,74,-99.99,,,-99.99,0.000000,,2013-08-09 02:55:00,
2013-08-08 23:07:00,65.0,56.0,30.02,NNW,347,1.0,-999.0,73,-99.99,,,-99.99,0.000000,,2013-08-09 03:07:00,
2013-08-08 23:15:00,65.0,57.0,30.02,NNW,347,0.0,-999.0,76,-99.99,,,-99.99,0.000000,,2013-08-09 03:15:00,
2013-08-08 23:34:00,64.0,56.0,30.01,North,351,0.0,-999.0,75,-99.99,,,-99.99,0.000000,,2013-08-09 03:34:00,
2013-08-08 23:46:00,64.0,56.0,30.02,North,351,0.0,-999.0,75,-99.99,,,-99.99,0.000000,,2013-08-09 03:46:00,